Time;durP1;ratioP1;P1;durP2;ratioP2;P2;SDS_P1;SDS_P2;PMS_P1;PMS_P2;Temp;Humidity;BMP_temperature;BMP_pressure;BME280_temperature;BME280_humidity;BME280_pressure;Samples;Min_cycle;Max_cycle;Signal;HPM_P1;HPM_P2
2023/12/15 00:00:46;;;;;;;45.72;2.88;;;;;;;21.88;54.78;100172.22;7307185;19;129518;-37
2023/12/15 00:03:11;;;;;;;57.25;3.10;;;;;;;21.93;54.38;100185.75;7310717;19;130973;-38
2023/12/15 00:05:36;;;;;;;190.52;8.00;;;;;;;21.91;54.51;100185.03;7309836;19;130276;-38
2023/12/15 00:08:02;;;;;;;68.63;3.97;;;;;;;21.91;54.95;100181.63;7309916;19;129668;-36
2023/12/15 00:10:27;;;;;;;50.60;3.65;;;;;;;21.92;54.64;100191.13;7308440;19;129641;-36
2023/12/15 00:12:53;;;;;;;91.38;4.55;;;;;;;21.91;54.85;100187.66;7310170;19;130421;-37
2023/12/15 00:15:18;;;;;;;113.77;5.27;;;;;;;21.92;54.87;100198.97;7310820;19;129439;-37
2023/12/15 00:17:43;;;;;;;116.32;5.78;;;;;;;21.89;54.48;100197.47;7309427;19;129870;-39
2023/12/15 00:20:09;;;;;;;87.53;4.53;;;;;;;21.89;55.17;100196.63;7307904;19;130343;-38
2023/12/15 00:22:34;;;;;;;81.93;4.20;;;;;;;21.89;54.38;100200.06;7308899;19;130758;-37
2023/12/15 00:25:00;;;;;;;109.47;5.10;;;;;;;21.93;55.20;100201.47;7310191;19;130391;-38
2023/12/15 00:27:26;;;;;;;58.90;3.60;;;;;;;21.89;54.45;100200.06;7311778;19;129265;-38
2023/12/15 00:29:51;;;;;;;118.40;5.73;;;;;;;21.82;55.31;100200.69;7307995;19;129407;-39
2023/12/15 00:32:17;;;;;;;97.60;4.63;;;;;;;21.88;55.17;100214.09;7310360;19;130161;-36
2023/12/15 00:34:43;;;;;;;111.63;5.28;;;;;;;21.88;54.92;100224.56;7309311;19;130445;-37
2023/12/15 00:37:08;;;;;;;84.90;4.22;;;;;;;21.91;54.34;100224.31;7310443;19;129396;-38
2023/12/15 00:39:37;;;;;;;54.22;2.92;;;;;;;21.89;55.26;100235.88;7309114;19;129475;-39
2023/12/15 00:42:04;;;;;;;108.22;4.95;;;;;;;21.86;55.13;100231.75;7309824;19;130049;-39
2023/12/15 00:44:30;;;;;;;183.98;7.55;;;;;;;21.88;54.49;100242.91;7310082;19;130757;-37
2023/12/15 00:46:55;;;;;;;56.20;3.53;;;;;;;21.90;55.22;100246.22;7309986;19;129070;-37
2023/12/15 00:49:20;;;;;;;93.82;4.38;;;;;;;21.91;54.79;100255.72;7307919;19;130566;-39
2023/12/15 00:51:45;;;;;;;93.50;4.45;;;;;;;21.93;54.86;100251.22;7308770;19;130994;-38
2023/12/15 00:54:11;;;;;;;109.70;4.97;;;;;;;21.98;54.45;100263.94;7314741;19;131087;-37
2023/12/15 00:56:36;;;;;;;17.73;1.73;;;;;;;21.96;53.91;100256.19;7314584;19;130134;-40
2023/12/15 00:59:04;;;;;;;70.28;3.88;;;;;;;21.96;54.34;100264.03;7314588;19;128798;-38
2023/12/15 01:01:29;;;;;;;113.38;5.22;;;;;;;21.98;54.25;100272.59;7316845;19;130274;-37
2023/12/15 01:03:55;;;;;;;99.68;4.55;;;;;;;21.98;54.19;100284.03;7316937;19;129163;-39
2023/12/15 01:06:20;;;;;;;108.13;5.03;;;;;;;21.98;53.77;100282.28;7315677;19;129448;-38
2023/12/15 01:08:45;;;;;;;67.53;3.33;;;;;;;22.01;53.76;100292.47;7313513;19;128997;-37
2023/12/15 01:11:11;;;;;;;132.35;5.55;;;;;;;22.01;54.04;100291.66;7315580;19;130335;-39
2023/12/15 01:13:36;;;;;;;97.68;4.50;;;;;;;21.86;54.05;100268.41;7314799;19;130404;-37
2023/12/15 01:16:04;;;;;;;51.55;2.85;;;;;;;22.01;54.01;100296.88;7315725;19;129423;-37
2023/12/15 01:18:30;;;;;;;114.18;5.03;;;;;;;22.01;53.22;100302.97;7310594;19;129590;-38
2023/12/15 01:20:55;;;;;;;135.38;5.93;;;;;;;22.02;53.86;100311.63;7313019;19;130131;-39
2023/12/15 01:23:20;;;;;;;49.43;3.10;;;;;;;22.01;53.24;100308.19;7316182;19;130339;-39
2023/12/15 01:25:46;;;;;;;90.30;4.35;;;;;;;21.88;53.64;100286.59;7314518;19;130466;-37
2023/12/15 01:28:11;;;;;;;49.33;2.65;;;;;;;22.01;53.61;100313.44;7315155;19;129419;-38
2023/12/15 01:30:36;;;;;;;118.30;4.83;;;;;;;22.02;53.51;100322.94;7310795;19;129256;-41
2023/12/15 01:33:02;;;;;;;77.32;3.83;;;;;;;22.01;53.58;100326.53;7315817;19;130449;-36
2023/12/15 01:35:27;;;;;;;55.95;2.83;;;;;;;22.00;53.22;100326.66;7315753;19;129158;-38
2023/12/15 01:37:52;;;;;;;107.10;4.57;;;;;;;21.80;53.40;100302.91;7312994;19;128917;-39
2023/12/15 01:40:18;;;;;;;114.17;5.00;;;;;;;21.96;53.26;100333.91;7313919;19;129511;-38
2023/12/15 01:42:43;;;;;;;64.13;3.30;;;;;;;21.98;53.16;100339.88;7314193;19;130347;-38
2023/12/15 01:45:09;;;;;;;77.40;3.63;;;;;;;21.98;53.72;100336.41;7314846;19;129075;-37
2023/12/15 01:47:34;;;;;;;193.23;8.27;;;;;;;21.84;53.41;100324.44;7314177;19;129204;-38
2023/12/15 01:50:00;;;;;;;94.90;4.18;;;;;;;21.94;53.96;100338.44;7313921;19;129390;-39
2023/12/15 01:52:26;;;;;;;57.75;3.20;;;;;;;21.93;53.86;100342.84;7314030;19;129977;-39
2023/12/15 01:54:52;;;;;;;64.43;3.40;;;;;;;21.92;53.82;100343.81;7314520;19;129665;-38
2023/12/15 01:57:17;;;;;;;108.40;4.60;;;;;;;21.90;53.30;100348.31;7313587;19;129068;-35
2023/12/15 01:59:46;;;;;;;67.95;3.63;;;;;;;21.92;53.75;100356.91;7313783;19;130201;-37
2023/12/15 02:02:12;;;;;;;76.63;3.65;;;;;;;21.91;53.70;100355.22;7314691;19;131262;-38
2023/12/15 02:04:39;;;;;;;58.65;3.15;;;;;;;21.89;54.08;100359.75;7312743;19;129502;-38
2023/12/15 02:07:04;;;;;;;211.07;8.38;;;;;;;21.86;54.30;100361.78;7311523;19;130449;-39
2023/12/15 02:09:30;;;;;;;56.00;3.08;;;;;;;21.88;53.49;100373.78;7313785;19;129997;-38
2023/12/15 02:11:55;;;;;;;65.35;3.50;;;;;;;21.87;53.93;100380.00;7313843;19;131062;-37
2023/12/15 02:14:20;;;;;;;61.92;3.25;;;;;;;21.86;54.36;100380.13;7313476;19;129256;-38
2023/12/15 02:16:46;;;;;;;137.00;5.43;;;;;;;21.84;54.08;100385.47;7312157;19;129153;-37
2023/12/15 02:19:11;;;;;;;73.82;3.50;;;;;;;21.84;54.28;100382.84;7312316;19;130115;-38
2023/12/15 02:21:36;;;;;;;51.50;2.58;;;;;;;21.83;54.26;100391.66;7314218;19;130268;-38
2023/12/15 02:24:02;;;;;;;78.22;3.67;;;;;;;21.82;53.87;100387.38;7313600;19;129416;-38
2023/12/15 02:26:27;;;;;;;158.48;6.45;;;;;;;21.82;54.11;100392.63;7312697;19;129033;-38
2023/12/15 02:28:52;;;;;;;98.57;4.23;;;;;;;21.82;53.78;100397.84;7313088;19;129434;-39
2023/12/15 02:31:20;;;;;;;77.33;3.77;;;;;;;21.82;54.31;100403.09;7313164;19;131266;-39
2023/12/15 02:33:46;;;;;;;80.70;3.65;;;;;;;21.81;53.50;100409.28;7314878;19;129360;-39
2023/12/15 02:36:19;;;;;;;149.70;5.90;;;;;;;21.80;54.90;100401.53;7313518;19;128892;-40
2023/12/15 02:38:44;;;;;;;67.78;3.10;;;;;;;21.79;54.28;100410.34;7310223;19;131431;-38
2023/12/15 02:41:13;;;;;;;40.30;2.38;;;;;;;21.79;54.23;100407.72;7312580;19;129184;-37
2023/12/15 02:43:39;;;;;;;72.78;3.33;;;;;;;21.76;53.91;100403.56;7314023;19;129479;-40
2023/12/15 02:46:05;;;;;;;165.07;6.50;;;;;;;21.76;54.41;100408.81;7314479;19;129503;-38
2023/12/15 02:48:31;;;;;;;74.07;3.38;;;;;;;21.77;53.92;100420.09;7314406;19;129781;-38
2023/12/15 02:50:56;;;;;;;105.63;4.35;;;;;;;21.74;53.70;100409.84;7310505;19;129533;-39
2023/12/15 02:53:22;;;;;;;69.22;3.25;;;;;;;21.73;54.28;100416.84;7313308;19;129380;-39
2023/12/15 02:55:47;;;;;;;135.05;5.30;;;;;;;21.73;53.83;100429.13;7314488;19;129212;-39
2023/12/15 02:58:12;;;;;;;52.15;2.58;;;;;;;21.74;54.39;100433.41;7311771;19;129422;-38
2023/12/15 03:00:38;;;;;;;76.70;3.40;;;;;;;21.62;54.24;100418.66;7309698;19;129830;-38
2023/12/15 03:03:04;;;;;;;91.22;3.92;;;;;;;21.72;54.37;100440.53;7313237;19;129229;-39
2023/12/15 03:05:30;;;;;;;119.68;4.93;;;;;;;21.70;54.01;100439.84;7312965;19;129033;-38
2023/12/15 03:07:55;;;;;;;93.68;3.88;;;;;;;21.67;54.21;100440.06;7312534;19;129505;-40
2023/12/15 03:10:20;;;;;;;49.97;2.42;;;;;;;21.67;54.36;100451.38;7310678;19;130367;-36
2023/12/15 03:12:46;;;;;;;108.83;4.67;;;;;;;21.68;54.10;100457.44;7311433;19;129584;-38
2023/12/15 03:15:11;;;;;;;62.97;3.35;;;;;;;21.65;54.68;100461.13;7312417;19;128969;-38
2023/12/15 03:17:36;;;;;;;228.35;9.88;;;;;;;21.63;54.81;100457.81;7301799;19;129085;-38
2023/12/15 03:20:03;;;;;;;216.45;8.23;;;;;;;21.63;54.54;100468.28;7301217;19;131297;-39
2023/12/15 03:22:29;;;;;;;115.43;4.60;;;;;;;21.61;54.43;100462.31;7307620;19;129467;-38
2023/12/15 03:24:54;;;;;;;85.38;3.83;;;;;;;21.49;54.13;100444.94;7309218;19;129097;-37
2023/12/15 03:27:20;;;;;;;55.40;2.53;;;;;;;21.59;54.57;100472.06;7310643;19;131129;-38
2023/12/15 03:29:45;;;;;;;78.18;3.67;;;;;;;21.59;54.71;100482.53;7308147;19;131472;-38
2023/12/15 03:32:10;;;;;;;95.80;4.07;;;;;;;21.62;54.40;100482.28;7311466;19;128984;-37
2023/12/15 03:34:36;;;;;;;93.10;4.05;;;;;;;21.62;54.28;100478.81;7311607;19;128924;-38
2023/12/15 03:37:01;;;;;;;83.05;3.60;;;;;;;21.61;54.51;100482.41;7309798;19;130257;-38
2023/12/15 03:39:26;;;;;;;151.40;6.03;;;;;;;21.57;54.87;100475.72;7305362;19;130806;-37
2023/12/15 03:41:52;;;;;;;107.93;4.57;;;;;;;21.61;54.23;100472.78;7308728;19;129022;-38
2023/12/15 03:44:17;;;;;;;88.65;4.07;;;;;;;21.60;54.62;100481.56;7311745;19;130735;-38
2023/12/15 03:46:42;;;;;;;93.15;4.00;;;;;;;21.61;54.77;100472.78;7309344;19;130133;-38
2023/12/15 03:49:08;;;;;;;87.68;4.13;;;;;;;21.61;54.88;100485.88;7309708;19;129068;-38
2023/12/15 03:51:33;;;;;;;111.07;4.50;;;;;;;21.61;54.67;100483.25;7295000;19;129233;-37
2023/12/15 03:53:58;;;;;;;159.45;6.53;;;;;;;21.61;54.80;100492.88;7301117;19;129595;-39
2023/12/15 03:56:25;;;;;;;45.35;2.33;;;;;;;21.61;54.91;100503.34;7310148;19;130271;-38
2023/12/15 03:58:51;;;;;;;96.55;4.10;;;;;;;21.47;54.36;100482.66;7306531;19;130377;-38
2023/12/15 04:01:16;;;;;;;140.15;5.70;;;;;;;21.56;54.39;100500.25;7307086;19;129176;-37
2023/12/15 04:03:41;;;;;;;53.38;2.72;;;;;;;21.58;54.95;100506.19;7309240;19;128910;-40
2023/12/15 04:06:08;;;;;;;71.10;3.33;;;;;;;21.58;54.40;100524.53;7308759;19;129391;-39
2023/12/15 04:08:34;;;;;;;102.22;4.47;;;;;;;21.53;54.52;100522.25;7306344;19;131098;-38
2023/12/15 04:10:59;;;;;;;113.30;4.77;;;;;;;21.40;54.58;100500.56;7310746;19;128834;-37
2023/12/15 04:13:25;;;;;;;58.05;2.95;;;;;;;21.54;54.81;100529.16;7310667;19;130515;-37
2023/12/15 04:15:50;;;;;;;158.32;6.20;;;;;;;21.55;55.24;100530.81;7308649;19;130067;-37
2023/12/15 04:18:16;;;;;;;161.27;6.05;;;;;;;21.55;54.84;100530.81;7305386;19;131040;-38
2023/12/15 04:20:42;;;;;;;91.33;3.93;;;;;;;21.53;55.22;100532.72;7307180;19;129238;-37
2023/12/15 04:23:07;;;;;;;105.57;4.32;;;;;;;21.52;55.04;100535.44;7309145;19;129687;-40
2023/12/15 04:25:33;;;;;;;30.83;1.85;;;;;;;21.53;54.64;100540.56;7307951;19;131527;-39
2023/12/15 04:27:58;;;;;;;164.45;6.05;;;;;;;21.55;54.51;100545.69;7309237;19;130299;-38
2023/12/15 04:30:24;;;;;;;60.60;2.87;;;;;;;21.53;54.87;100548.44;7316352;19;128937;-38
2023/12/15 04:32:49;;;;;;;58.35;2.85;;;;;;;21.51;54.96;100557.31;7314047;19;129258;-38
2023/12/15 04:35:14;;;;;;;66.57;3.03;;;;;;;21.38;55.48;100528.66;7316263;19;129488;-38
2023/12/15 04:37:44;;;;;;;200.53;8.23;;;;;;;21.51;55.26;100558.16;7314442;19;131169;-38
2023/12/15 04:40:10;;;;;;;105.95;4.70;;;;;;;21.50;54.79;100563.50;7315507;19;129759;-39
2023/12/15 04:42:36;;;;;;;47.70;2.45;;;;;;;21.47;54.82;100564.56;7314735;19;128909;-37
2023/12/15 04:45:04;;;;;;;83.30;3.90;;;;;;;21.46;55.09;100568.16;7315270;19;130314;-38
2023/12/15 04:47:30;;;;;;;190.57;7.70;;;;;;;21.44;54.74;100569.19;7316313;19;130844;-37
2023/12/15 04:49:55;;;;;;;57.92;3.05;;;;;;;21.38;55.37;100564.44;7314306;19;129105;-38
2023/12/15 04:52:20;;;;;;;186.37;7.27;;;;;;;21.44;55.49;100570.03;7313095;19;129647;-36
2023/12/15 04:54:46;;;;;;;56.97;2.60;;;;;;;21.29;55.11;100555.47;7314275;19;130283;-39
2023/12/15 04:57:11;;;;;;;112.30;4.68;;;;;;;21.42;55.00;100577.16;7314243;19;129743;-37
2023/12/15 04:59:39;;;;;;;115.38;4.65;;;;;;;21.30;55.21;100562.41;7314358;19;129280;-39
2023/12/15 05:02:05;;;;;;;236.20;9.15;;;;;;;21.38;55.45;100580.97;7311993;19;129119;-40
2023/12/15 05:04:31;;;;;;;143.13;5.87;;;;;;;21.41;55.17;100590.34;7314083;19;129751;-38
2023/12/15 05:06:56;;;;;;;170.43;6.47;;;;;;;21.39;55.30;100595.69;7313855;19;131190;-38
2023/12/15 05:09:21;;;;;;;102.03;4.25;;;;;;;21.42;55.06;100592.03;7308410;19;129983;-38
2023/12/15 05:11:47;;;;;;;86.43;3.83;;;;;;;21.39;55.03;100594.84;7314426;19;129031;-38
2023/12/15 05:14:12;;;;;;;116.40;4.95;;;;;;;21.25;55.08;100572.38;7314485;19;129129;-38
2023/12/15 05:16:39;;;;;;;133.85;5.15;;;;;;;21.37;55.06;100602.81;7313937;19;131276;-39
2023/12/15 05:19:04;;;;;;;144.60;6.07;;;;;;;21.39;55.37;100608.78;7311584;19;129973;-39
2023/12/15 05:21:30;;;;;;;56.33;2.95;;;;;;;21.37;54.91;100617.72;7313697;19;129737;-39
2023/12/15 05:23:58;;;;;;;87.95;3.72;;;;;;;21.32;55.61;100612.78;7314676;19;130593;-37
2023/12/15 05:26:25;;;;;;;149.45;6.05;;;;;;;21.39;55.27;100628.88;7312727;19;131436;-38
2023/12/15 05:28:51;;;;;;;;;;;;;;;21.35;56.43;100623.06;7312390;19;129614;-39
2023/12/15 05:31:16;;;;;;;35.20;1.98;;;;;;;21.33;55.37;100638.03;7315715;19;131448;-38
2023/12/15 05:33:42;;;;;;;214.93;8.40;;;;;;;21.36;55.12;100643.03;7309566;19;130523;-38
2023/12/15 05:36:15;;;;;;;159.02;6.20;;;;;;;21.34;55.79;100646.69;7313617;19;129246;-37
2023/12/15 05:38:41;;;;;;;113.68;4.65;;;;;;;21.20;55.18;100634.63;7311769;19;130234;-38
2023/12/15 05:41:07;;;;;;;115.72;4.90;;;;;;;21.28;55.23;100655.00;7310551;19;129091;-38
2023/12/15 05:43:32;;;;;;;127.28;5.28;;;;;;;21.18;55.78;100646.97;7312319;19;130776;-39
2023/12/15 05:45:57;;;;;;;99.15;4.03;;;;;;;21.29;55.67;100662.72;7312745;19;130364;-37
2023/12/15 05:48:23;;;;;;;72.65;3.33;;;;;;;21.30;55.82;100664.41;7312804;19;129487;-38
2023/12/15 05:50:49;;;;;;;123.88;5.20;;;;;;;21.28;55.25;100666.28;7308617;19;129506;-36
2023/12/15 05:53:14;;;;;;;260.17;9.73;;;;;;;21.25;55.39;100678.75;7305555;19;130812;-36
2023/12/15 05:55:40;;;;;;;85.05;3.92;;;;;;;21.26;55.38;100673.41;7308957;19;130743;-37
2023/12/15 05:58:05;;;;;;;111.70;4.57;;;;;;;21.26;55.36;100680.41;7308392;19;129034;-39
2023/12/15 06:00:30;;;;;;;84.95;3.50;;;;;;;21.26;55.88;100689.09;7306244;19;129679;-38
2023/12/15 06:02:56;;;;;;;153.40;6.10;;;;;;;21.24;55.79;100687.53;7309442;19;130640;-38
2023/12/15 06:05:21;;;;;;;200.00;7.93;;;;;;;21.25;55.43;100689.22;7309194;19;130746;-35
2023/12/15 06:07:46;;;;;;;149.68;5.65;;;;;;;21.25;55.75;100695.28;7302681;19;130344;-38
2023/12/15 06:10:12;;;;;;;136.73;5.75;;;;;;;21.24;55.41;100703.22;7305498;19;130317;-36
2023/12/15 06:12:37;;;;;;;208.80;7.88;;;;;;;21.24;55.39;100709.28;7308354;19;129216;-37
2023/12/15 06:15:05;;;;;;;88.60;3.80;;;;;;;21.23;55.75;100697.19;7308031;19;132022;-38
2023/12/15 06:17:30;;;;;;;127.35;5.30;;;;;;;21.23;55.51;100705.03;7308774;19;130209;-38
2023/12/15 06:19:56;;;;;;;145.85;5.70;;;;;;;21.10;55.72;100691.16;7306274;19;129564;-38
2023/12/15 06:22:21;;;;;;;145.55;5.63;;;;;;;21.25;55.40;100716.22;7312292;19;130158;-38
2023/12/15 06:24:46;;;;;;;37.20;2.22;;;;;;;21.13;56.04;100696.16;7312117;19;130342;-37
2023/12/15 06:27:12;;;;;;;75.63;3.08;;;;;;;21.21;56.01;100725.22;7313703;19;129001;-38
2023/12/15 06:29:37;;;;;;;84.30;3.55;;;;;;;21.21;55.57;100729.59;7308514;19;129997;-38
2023/12/15 06:32:03;;;;;;;123.45;5.05;;;;;;;21.17;56.19;100733.41;7313053;19;130469;-37
2023/12/15 06:34:28;;;;;;;120.37;4.93;;;;;;;21.20;55.86;100730.56;7313489;19;130455;-38
2023/12/15 06:36:53;;;;;;;60.75;2.85;;;;;;;21.17;55.76;100736.81;7310555;19;129303;-36
2023/12/15 06:39:18;;;;;;;176.73;7.00;;;;;;;21.18;55.54;100738.50;7306933;19;129910;-38
2023/12/15 06:41:44;;;;;;;65.60;2.83;;;;;;;21.20;56.14;100735.78;7314421;19;130386;-34
2023/12/15 06:44:09;;;;;;;96.18;4.32;;;;;;;21.02;55.51;100708.34;7312514;19;130229;-37
2023/12/15 06:46:36;;;;;;;81.45;3.30;;;;;;;21.15;55.50;100737.88;7311706;19;129255;-37
2023/12/15 06:49:02;;;;;;;204.52;7.60;;;;;;;21.16;55.51;100742.16;7310958;19;129785;-38
2023/12/15 06:51:27;;;;;;;24.98;1.60;;;;;;;21.14;56.10;100744.88;7312003;19;131204;-37
2023/12/15 06:53:52;;;;;;;76.70;3.28;;;;;;;21.16;55.89;100752.63;7312317;19;130214;-38
2023/12/15 06:56:18;;;;;;;86.70;3.80;;;;;;;21.15;55.92;100756.19;7312567;19;130018;-39
2023/12/15 06:58:46;;;;;;;108.82;4.32;;;;;;;21.16;55.68;100757.84;7309172;19;129201;-38
2023/12/15 07:01:13;;;;;;;151.38;6.05;;;;;;;21.14;56.12;100763.19;7302722;19;130220;-37
2023/12/15 07:03:39;;;;;;;140.73;5.57;;;;;;;21.11;56.22;100768.66;7302415;19;130404;-39
2023/12/15 07:06:05;;;;;;;74.38;3.25;;;;;;;21.13;55.80;100777.22;7301598;19;129529;-39
2023/12/15 07:08:30;;;;;;;224.98;8.30;;;;;;;21.16;56.23;100779.63;7301186;19;131643;-36
2023/12/15 07:10:55;;;;;;;138.02;5.57;;;;;;;21.14;56.08;100776.28;7297858;19;129803;-37
2023/12/15 07:13:21;;;;;;;147.90;6.03;;;;;;;21.09;56.13;100773.16;7301442;19;130694;-39
2023/12/15 07:15:46;;;;;;;115.45;5.03;;;;;;;21.12;55.61;100778.16;7302287;19;129135;-38
2023/12/15 07:18:11;;;;;;;166.38;6.22;;;;;;;20.99;56.16;100761.66;7305095;19;130496;-38
2023/12/15 07:20:37;;;;;;;125.35;4.68;;;;;;;21.11;56.34;100791.34;7308371;19;133354;-38
2023/12/15 07:23:02;;;;;;;81.35;3.33;;;;;;;21.09;55.83;100796.69;7311712;19;130674;-38
2023/12/15 07:25:27;;;;;;;102.80;4.05;;;;;;;21.10;55.70;100800.13;7305821;19;129515;-38
2023/12/15 07:27:53;;;;;;;87.63;3.50;;;;;;;21.10;55.87;100800.13;7311684;19;129094;-38
2023/12/15 07:30:19;;;;;;;87.65;3.45;;;;;;;21.08;55.64;100797.63;7306785;19;129425;-38
2023/12/15 07:32:44;;;;;;;88.80;3.87;;;;;;;20.95;55.97;100781.09;7310057;19;130367;-38
2023/12/15 07:35:10;;;;;;;292.77;11.18;;;;;;;21.12;55.75;100811.34;7304095;19;129386;-37
2023/12/15 07:37:35;;;;;;;189.75;7.65;;;;;;;20.99;56.01;100798.25;7300168;19;129888;-39
2023/12/15 07:40:03;;;;;;;51.35;2.58;;;;;;;21.09;55.58;100808.94;7301421;19;130818;-39
2023/12/15 07:42:29;;;;;;;93.15;3.65;;;;;;;21.10;56.31;100821.91;7309404;19;131997;-39
2023/12/15 07:44:54;;;;;;;93.97;3.72;;;;;;;21.05;56.51;100826.63;7304387;19;130213;-37
2023/12/15 07:47:19;;;;;;;113.65;4.65;;;;;;;21.01;56.05;100827.75;7308229;19;131320;-39
2023/12/15 07:49:45;;;;;;;80.47;3.47;;;;;;;21.04;55.76;100838.00;7300456;19;130778;-38
2023/12/15 07:52:10;;;;;;;78.70;3.27;;;;;;;21.04;56.00;100842.41;7311081;19;130269;-37
2023/12/15 07:54:36;;;;;;;167.40;6.20;;;;;;;20.99;55.64;100824.41;7310411;19;128936;-38
2023/12/15 07:57:01;;;;;;;82.38;3.72;;;;;;;21.00;55.71;100840.94;7313139;19;129918;-38
2023/12/15 07:59:26;;;;;;;96.07;4.30;;;;;;;21.00;55.80;100831.31;7307726;19;130664;-36
2023/12/15 08:01:54;;;;;;;92.23;4.13;;;;;;;21.04;55.70;100837.19;7311927;19;130285;-38
2023/12/15 08:04:20;;;;;;;160.40;6.15;;;;;;;21.05;55.33;100847.53;7310124;19;131228;-40
2023/12/15 08:06:45;;;;;;;56.67;2.75;;;;;;;21.06;55.89;100859.66;7310577;19;129588;-38
2023/12/15 08:09:11;;;;;;;91.07;3.87;;;;;;;21.02;55.21;100854.75;7308736;19;130744;-38
2023/12/15 08:11:37;;;;;;;54.92;2.53;;;;;;;21.04;55.95;100852.88;7308551;19;129280;-37
2023/12/15 08:14:03;;;;;;;172.93;6.37;;;;;;;21.01;55.75;100874.81;7310109;19;129333;-36
2023/12/15 08:16:31;;;;;;;123.77;5.10;;;;;;;20.87;56.00;100851.38;7308468;19;129276;-37
2023/12/15 08:18:57;;;;;;;55.35;2.45;;;;;;;21.01;55.39;100881.81;7307226;19;130393;-36
2023/12/15 08:21:23;;;;;;;135.57;5.30;;;;;;;21.02;55.42;100879.13;7309188;19;130290;-37
2023/12/15 08:23:48;;;;;;;121.78;4.70;;;;;;;21.04;55.49;100884.25;7310639;19;128832;-38
2023/12/15 08:26:23;;;;;;;70.72;2.95;;;;;;;20.99;56.75;100887.16;7309371;19;128971;-37
2023/12/15 08:28:48;;;;;;;78.90;3.20;;;;;;;20.97;55.57;100894.28;7309337;19;130272;-38
2023/12/15 08:31:14;;;;;;;86.32;3.63;;;;;;;20.97;55.82;100885.56;7310013;19;130391;-38
2023/12/15 08:33:39;;;;;;;131.90;5.03;;;;;;;20.87;55.92;100872.28;7311991;19;129076;-37
2023/12/15 08:36:05;;;;;;;63.87;2.90;;;;;;;20.96;56.12;100899.59;7309323;19;128835;-38
2023/12/15 08:38:30;;;;;;;53.53;2.45;;;;;;;20.95;55.66;100896.13;7308571;19;130375;-39
2023/12/15 08:40:55;;;;;;;59.47;2.78;;;;;;;20.93;55.93;100892.78;7306208;19;130351;-38
2023/12/15 08:43:21;;;;;;;284.05;11.35;;;;;;;20.93;56.12;100898.00;7306459;19;130105;-38
2023/12/15 08:45:46;;;;;;;178.02;7.20;;;;;;;20.92;55.99;100898.09;7303043;19;130414;-38
2023/12/15 08:48:12;;;;;;;105.20;4.15;;;;;;;20.90;56.33;100898.22;7304181;19;130781;-37
2023/12/15 08:50:37;;;;;;;107.07;4.27;;;;;;;20.94;56.17;100904.88;7306967;19;130579;-38
2023/12/15 08:53:02;;;;;;;123.80;4.75;;;;;;;20.94;56.19;100896.22;7307652;19;129544;-37
2023/12/15 08:55:27;;;;;;;63.88;2.90;;;;;;;20.97;55.81;100899.50;7308855;19;130347;-38
2023/12/15 08:57:53;;;;;;;51.85;2.33;;;;;;;20.97;56.03;100894.28;7309138;19;129940;-38
2023/12/15 09:00:18;;;;;;;155.80;6.03;;;;;;;20.94;56.31;100898.84;7307288;19;130813;-39
2023/12/15 09:02:44;;;;;;;68.10;2.75;;;;;;;20.95;56.05;100898.75;7309592;19;129231;-37
2023/12/15 09:05:09;;;;;;;51.58;2.38;;;;;;;20.91;56.43;100905.09;7308601;19;128939;-38
2023/12/15 09:07:34;;;;;;;127.27;5.30;;;;;;;20.94;55.71;100912.72;7309921;19;130107;-38
2023/12/15 09:10:00;;;;;;;85.50;3.53;;;;;;;20.91;56.46;100912.13;7307855;19;130323;-37
2023/12/15 09:12:25;;;;;;;80.05;3.22;;;;;;;20.91;56.41;100922.59;7311393;19;129474;-38
2023/12/15 09:14:50;;;;;;;93.45;3.75;;;;;;;20.92;56.12;100927.72;7311059;19;130393;-38
2023/12/15 09:17:16;;;;;;;75.53;3.25;;;;;;;20.89;56.30;100920.03;7315578;19;130124;-37
2023/12/15 09:19:42;;;;;;;143.18;5.35;;;;;;;20.82;56.06;100908.34;7314249;19;129178;-38
2023/12/15 09:22:07;;;;;;;107.27;4.10;;;;;;;20.89;56.01;100924.47;7317343;19;129006;-38
2023/12/15 09:24:36;;;;;;;84.82;3.45;;;;;;;20.90;55.88;100928.72;7314627;19;129821;-38
2023/12/15 09:27:01;;;;;;;74.55;3.33;;;;;;;20.88;56.62;100931.44;7313906;19;130242;-39
2023/12/15 09:29:26;;;;;;;175.95;6.63;;;;;;;20.85;56.42;100934.28;7313791;19;130979;-37
2023/12/15 09:31:52;;;;;;;49.47;2.58;;;;;;;20.68;56.05;100898.81;7316174;19;129313;-38
2023/12/15 09:34:19;;;;;;;99.43;4.28;;;;;;;20.83;56.75;100920.47;7314986;19;129362;-37
2023/12/15 09:36:46;;;;;;;77.30;3.30;;;;;;;20.83;56.27;100923.09;7312766;19;131078;-37
2023/12/15 09:39:11;;;;;;;;;;;;;;;20.84;57.51;100922.13;7312224;19;131522;-37
2023/12/15 09:41:36;;;;;;;66.37;2.80;;;;;;;20.86;56.02;100928.09;7316137;19;129012;-38
2023/12/15 09:44:02;;;;;;;75.18;3.28;;;;;;;20.85;56.43;100921.22;7314800;19;128995;-38
2023/12/15 09:46:29;;;;;;;111.13;4.40;;;;;;;20.85;56.65;100926.44;7313185;19;130318;-38
2023/12/15 09:48:55;;;;;;;115.22;4.75;;;;;;;20.86;56.37;100919.44;7313229;19;130564;-37
2023/12/15 09:51:25;;;;;;;114.50;4.73;;;;;;;20.82;57.02;100923.19;7315532;19;130460;-38
2023/12/15 09:53:51;;;;;;;52.17;2.20;;;;;;;20.81;56.17;100921.53;7314099;19;129570;-38
2023/12/15 09:56:18;;;;;;;42.33;2.05;;;;;;;20.78;56.75;100927.78;7313275;19;130919;-37
2023/12/15 09:58:43;;;;;;;178.93;6.55;;;;;;;20.80;56.98;100938.13;7310607;19;130867;-37
2023/12/15 10:01:10;;;;;;;50.83;2.20;;;;;;;20.82;56.25;100937.09;7314787;19;129501;-38
2023/12/15 10:03:35;;;;;;;;;;;;;;;20.83;57.41;100938.75;7315719;19;129912;-38
2023/12/15 10:06:01;;;;;;;67.10;2.85;;;;;;;20.82;56.24;100937.09;7313964;19;130177;-37
2023/12/15 10:08:39;;;;;;;71.13;3.03;;;;;;;20.83;56.68;100944.00;7313560;19;130390;-38
2023/12/15 10:11:04;;;;;;;83.45;3.55;;;;;;;20.80;56.24;100944.19;7313763;19;128874;-36
2023/12/15 10:13:30;;;;;;;50.13;2.22;;;;;;;20.81;56.90;100951.09;7315482;19;129764;-38
2023/12/15 10:15:55;;;;;;;53.38;2.40;;;;;;;20.78;56.94;100946.06;7313970;19;130250;-39
2023/12/15 10:18:21;;;;;;;115.72;4.45;;;;;;;20.80;56.25;100949.44;7313637;19;129305;-38
2023/12/15 10:20:46;;;;;;;71.75;3.00;;;;;;;20.81;56.72;100951.09;7313673;19;129537;-37
2023/12/15 10:23:12;;;;;;;19.80;1.25;;;;;;;20.81;56.76;100956.31;7312607;19;130991;-38
2023/12/15 10:25:37;;;;;;;79.47;3.25;;;;;;;20.80;56.54;100953.81;7312526;19;129729;-38
2023/12/15 10:28:04;;;;;;;132.05;4.88;;;;;;;20.78;56.87;100953.91;7314171;19;131074;-37
2023/12/15 10:30:29;;;;;;;69.78;2.80;;;;;;;20.80;56.57;100954.66;7312656;19;129790;-38
2023/12/15 10:32:58;;;;;;;80.78;3.35;;;;;;;20.64;56.79;100930.47;7312746;19;129124;-37
2023/12/15 10:35:25;;;;;;;95.28;3.83;;;;;;;20.74;56.68;100960.31;7312520;19;130262;-38
2023/12/15 10:37:51;;;;;;;;;;;;;;;20.74;57.31;100944.63;7314288;19;131248;-37
2023/12/15 10:40:17;;;;;;;80.70;3.38;;;;;;;20.74;56.46;100947.22;7311167;19;128803;-37
2023/12/15 10:42:44;;;;;;;69.88;2.95;;;;;;;20.75;56.70;100956.72;7313580;19;129213;-38
2023/12/15 10:45:10;;;;;;;65.97;2.80;;;;;;;20.73;57.10;100958.59;7311704;19;130462;-38
2023/12/15 10:47:35;;;;;;;158.30;6.28;;;;;;;20.75;56.45;100967.19;7313267;19;130899;-38
2023/12/15 10:50:02;;;;;;;51.90;2.28;;;;;;;20.74;56.53;100962.91;7313401;19;129024;-39
2023/12/15 10:52:27;;;;;;;72.32;3.03;;;;;;;20.72;56.53;100949.91;7310595;19;129388;-39
2023/12/15 10:54:55;;;;;;;151.82;6.05;;;;;;;20.75;56.87;100967.19;7309426;19;130447;-38
2023/12/15 10:57:21;;;;;;;108.03;4.22;;;;;;;20.73;57.21;100969.06;7311608;19;132262;-37
2023/12/15 10:59:48;;;;;;;71.57;3.03;;;;;;;20.73;56.52;100976.91;7310970;19;130034;-38